CYBW weather

Calgary / Springbank Airport
Calgary, Alberta, Canada

Public forecast

Using degrees Celsius for public forecast. Weather courtesy of forecast.io.

Current aviation weather report (METAR) for Calgary / Springbank Airport

Retrieved 2019/10/21 21:00 UTC (9 minutes ago):

CYBW 212100Z AUTO 27019G28KT 9SM OVC240 10/M07 A2989 RMK SLP159 DENSITY ALT 4200FT

Aviation forecast (TAF) for Calgary / Springbank Airport

Retrieved 2019/10/21 18:00 UTC (3 hours ago):

TAF CYBW 211743Z 2118/2204 VRB03KT P6SM FEW120 BKN240 BECMG 2119/2121 28008KT FM220000 29015KT P6SM SCT090 SCT240 RMK FCST BASED ON AUTO OBS NXT FCST BY 220000Z